Plainfield, Vermont
Current Conditions -  °F | °C
As of 10:51 PM on Friday 19 Dec 2014 (Local Time) from KMPV Reporting Station
Broken Clouds Broken Clouds  
Wind Chill: 10°   Ceiling: 1300
Heat Index: 17°   Visibility: 10mi
Dew Point: 13°   Wind: 5mph
Humidity: 84%   Direction: 20°NNE
Pressure: 30.19"   Gusts: NA
Location:  44.28°N, 72.43°W
Report Text: KMPV 200351Z AUTO 02004KT 10SM BKN013 M08/M11 A3019 RMK AO2 SLP246 T10831106
Loading
Personal Weather Stations






























Interactive Weather Map New forecast layout! Learn more

10-Day Weather Forecast

Advertisements
Track Severe Weather on mobile